Harbor Heights, Washington
Current Conditions -  °F | °C
As of 8:58 PM on Saturday 25 Oct 2014 (Local Time) from KTCM Reporting Station
Overcast Overcast  
Wind Chill: 52°   Ceiling: 3600
Heat Index: 52°   Visibility: 10mi
Dew Point: 51°   Wind: 18mph
Humidity: 95%   Direction: 220°SW
Pressure: 29.63"   Gusts: 30mph
Location:  47.0168°N, 122.279°W
Report Text: KTCM 260358Z AUTO 22016G26KT 10SM FEW019 SCT029 OVC036 11/10 A2963 RMK AO2 PK WND 21032/17 RAE0353 SLP038 P0001 T01110103 $
Loading
Personal Weather Stations






























Interactive Weather Map
Tropical Storm Tracking
New forecast layout! Learn more

10-Day Weather Forecast

Advertisements
Track Severe Weather on mobile